Time;durP1;ratioP1;P1;durP2;ratioP2;P2;SDS_P1;SDS_P2;PMS_P1;PMS_P2;Temp;Humidity;BMP_temperature;BMP_pressure;BME280_temperature;BME280_humidity;BME280_pressure;Samples;Min_cycle;Max_cycle;Signal;HPM_P1;HPM_P2
2022/11/06 00:00:34;;;;;;;691.60;173.57;;;7.50;99.90;;;;;;5129076;27;20226;-51
2022/11/06 00:03:02;;;;;;;405.80;80.87;;;7.40;99.90;;;;;;5128127;27;20238;-51
2022/11/06 00:08:30;;;;;;;663.83;161.20;;;7.50;99.90;;;;;;5116057;27;20222;-52
2022/11/06 00:10:58;;;;;;;871.03;181.70;;;7.50;99.90;;;;;;5129058;27;20227;-51
2022/11/06 00:13:29;;;;;;;1008.00;260.47;;;7.40;99.90;;;;;;5119839;27;20291;-51
2022/11/06 00:15:57;;;;;;;210.27;80.27;;;7.50;99.90;;;;;;5123342;27;20286;-51
2022/11/06 00:18:27;;;;;;;417.20;158.30;;;7.40;99.90;;;;;;5120395;27;20265;-51
2022/11/06 00:20:55;;;;;;;228.13;78.53;;;7.50;99.90;;;;;;5129385;27;20305;-53
2022/11/06 00:23:23;;;;;;;153.07;57.13;;;7.50;99.90;;;;;;5122242;27;20218;-52
2022/11/06 00:25:55;;;;;;;176.23;78.47;;;7.50;99.90;;;;;;5118630;27;20230;-51
2022/11/06 00:28:23;;;;;;;235.23;80.07;;;7.50;99.90;;;;;;5126541;27;20210;-52
2022/11/06 00:31:01;;;;;;;266.90;113.07;;;7.60;99.90;;;;;;5126152;27;20306;-51
2022/11/06 00:33:29;;;;;;;310.07;69.17;;;7.50;99.90;;;;;;5119449;27;21481;-50
2022/11/06 00:35:57;;;;;;;176.67;78.47;;;7.40;99.90;;;;;;5123436;27;20716;-51
2022/11/06 00:38:26;;;;;;;210.50;72.00;;;7.40;99.90;;;;;;5115966;27;20242;-51
2022/11/06 00:40:54;;;;;;;1267.20;276.50;;;7.30;99.90;;;;;;5120491;27;20702;-51
2022/11/06 00:43:22;;;;;;;360.87;110.13;;;7.30;99.90;;;;;;5126588;27;20202;-51
2022/11/06 00:45:50;;;;;;;270.63;94.20;;;7.30;99.90;;;;;;5121814;27;20226;-51
2022/11/06 00:48:19;;;;;;;226.83;84.10;;;7.40;99.90;;;;;;5114653;27;20318;-51
2022/11/06 00:50:47;;;;;;;99.47;55.70;;;7.40;99.90;;;;;;5130826;27;20710;-51
2022/11/06 00:53:16;;;;;;;479.03;155.33;;;7.40;99.90;;;;;;5117118;27;20241;-51
2022/11/06 00:55:44;;;;;;;152.57;70.03;;;7.40;99.90;;;;;;5118084;27;20225;-51
2022/11/06 00:58:12;;;;;;;443.43;121.93;;;7.40;99.90;;;;;;5124508;27;20208;-50
2022/11/06 01:00:40;;;;;;;1282.97;228.73;;;7.40;99.90;;;;;;5124037;27;20288;-50
2022/11/06 01:03:08;;;;;;;1666.37;345.47;;;7.40;99.90;;;;;;5130732;27;20203;-51
2022/11/06 01:05:38;;;;;;;402.93;112.13;;;7.30;99.90;;;;;;5130027;27;20748;-51
2022/11/06 01:08:06;;;;;;;158.47;77.00;;;7.30;99.90;;;;;;5121035;27;20300;-51
2022/11/06 01:10:37;;;;;;;294.03;97.80;;;7.40;99.90;;;;;;5124427;27;20337;-51
2022/11/06 01:13:05;;;;;;;449.87;126.50;;;7.40;99.90;;;;;;5117814;27;20242;-51
2022/11/06 01:15:36;;;;;;;260.67;97.63;;;7.40;99.90;;;;;;5116651;27;20284;-50
2022/11/06 01:18:04;;;;;;;277.70;94.80;;;7.40;99.90;;;;;;5122972;27;20683;-51
2022/11/06 01:20:32;;;;;;;403.17;127.43;;;7.40;99.90;;;;;;5122712;27;20258;-51
2022/11/06 01:23:02;;;;;;;143.93;66.10;;;7.40;99.90;;;;;;5127537;27;20310;-51
2022/11/06 01:25:30;;;;;;;455.30;101.73;;;7.50;99.90;;;;;;5113976;27;20668;-51
2022/11/06 01:27:58;;;;;;;982.63;197.13;;;7.50;99.90;;;;;;5120389;27;20302;-52
2022/11/06 01:30:26;;;;;;;226.13;79.13;;;7.40;99.90;;;;;;5117374;27;20227;-51
2022/11/06 01:32:55;;;;;;;257.87;74.57;;;7.40;99.90;;;;;;5118539;27;20285;-53
2022/11/06 01:35:23;;;;;;;244.93;83.50;;;7.40;99.90;;;;;;5122373;27;20261;-52
2022/11/06 01:37:51;;;;;;;582.57;155.13;;;7.40;99.90;;;;;;5124104;27;20628;-52
2022/11/06 01:40:20;;;;;;;500.80;131.90;;;7.40;99.90;;;;;;5131662;27;20218;-51
2022/11/06 01:42:48;;;;;;;1226.63;221.10;;;7.40;99.90;;;;;;5132113;27;20297;-53
2022/11/06 01:45:33;;;;;;;784.77;201.73;;;7.40;99.90;;;;;;5135216;27;20689;-51
2022/11/06 01:48:01;;;;;;;1356.20;276.70;;;7.40;99.90;;;;;;5125017;27;20245;-51
2022/11/06 01:50:30;;;;;;;1673.47;331.33;;;7.40;99.90;;;;;;5134595;27;20641;-52
2022/11/06 01:53:01;;;;;;;773.47;187.00;;;7.30;99.90;;;;;;5128032;27;20330;-50
2022/11/06 01:55:36;;;;;;;1087.67;194.63;;;7.30;99.90;;;;;;5135321;27;20411;-50
2022/11/06 01:58:07;;;;;;;300.63;96.03;;;7.30;99.90;;;;;;5130648;27;20277;-51
2022/11/06 02:00:35;;;;;;;277.73;83.60;;;7.30;99.90;;;;;;5133800;27;20259;-51
2022/11/06 02:03:04;;;;;;;635.50;137.90;;;7.30;99.90;;;;;;5135222;27;20243;-51
2022/11/06 02:05:32;;;;;;;1253.63;318.67;;;7.30;99.90;;;;;;5132305;27;20716;-51
2022/11/06 02:08:01;;;;;;;507.67;133.83;;;7.30;99.90;;;;;;5116765;27;20231;-51
2022/11/06 02:10:31;;;;;;;474.40;122.43;;;7.20;99.90;;;;;;5133735;27;20872;-51
2022/11/06 02:13:16;;;;;;;795.30;166.00;;;7.30;99.90;;;;;;5120136;27;20199;-50
2022/11/06 02:15:49;;;;;;;1040.47;181.13;;;7.20;99.90;;;;;;5127827;27;20731;-51
2022/11/06 02:18:27;;;;;;;1000.10;207.30;;;7.30;99.90;;;;;;5129142;27;20203;-51
2022/11/06 02:21:27;;;;;;;382.80;137.00;;;7.20;99.90;;;;;;5121256;27;20658;-52
2022/11/06 02:24:28;;;;;;;903.43;202.10;;;7.20;99.90;;;;;;5117188;27;20312;-52
2022/11/06 02:27:05;;;;;;;1512.93;299.37;;;7.10;99.90;;;;;;5126525;27;20337;-51
2022/11/06 02:29:38;;;;;;;559.90;129.37;;;7.10;99.90;;;;;;5121544;27;20213;-51
2022/11/06 02:32:10;;;;;;;182.97;71.53;;;7.20;99.90;;;;;;5120566;27;20225;-52
2022/11/06 02:34:39;;;;;;;1414.33;241.93;;;7.20;99.90;;;;;;5135910;27;20249;-51
2022/11/06 02:37:12;;;;;;;359.07;91.40;;;7.20;99.90;;;;;;5138212;27;20268;-51
2022/11/06 02:39:44;;;;;;;92.33;46.10;;;7.20;99.90;;;;;;5130902;27;20292;-52
2022/11/06 02:42:16;;;;;;;264.47;93.70;;;7.20;99.90;;;;;;5129616;27;20659;-51
2022/11/06 02:44:47;;;;;;;500.40;123.57;;;7.20;99.90;;;;;;5130506;27;20239;-52
2022/11/06 02:47:16;;;;;;;1041.20;300.80;;;7.20;99.90;;;;;;5130974;27;20238;-52
2022/11/06 02:49:49;;;;;;;189.97;76.30;;;7.20;99.90;;;;;;5129856;27;20290;-50
2022/11/06 02:52:21;;;;;;;1161.13;265.33;;;7.20;99.90;;;;;;5124405;27;20202;-52
2022/11/06 02:54:55;;;;;;;1917.77;361.17;;;7.20;99.90;;;;;;5125009;27;20680;-51
2022/11/06 02:57:26;;;;;;;1066.20;191.73;;;7.10;99.90;;;;;;5122765;27;20237;-51
2022/11/06 03:00:04;;;;;;;1098.07;230.13;;;7.10;99.90;;;;;;5128630;27;20210;-51
2022/11/06 03:02:37;;;;;;;541.23;151.00;;;7.10;99.90;;;;;;5120153;27;20238;-51
2022/11/06 03:05:11;;;;;;;940.30;185.70;;;7.10;99.90;;;;;;5120268;27;20207;-52
2022/11/06 03:07:44;;;;;;;487.33;120.43;;;7.10;99.90;;;;;;5128851;27;20288;-51
2022/11/06 03:10:13;;;;;;;679.63;145.87;;;7.10;99.90;;;;;;5122553;27;20272;-52
2022/11/06 03:12:50;;;;;;;920.57;220.23;;;7.10;99.90;;;;;;5128787;27;20239;-51
2022/11/06 03:15:24;;;;;;;870.07;207.63;;;7.10;99.90;;;;;;5127008;27;20246;-51
2022/11/06 03:18:01;;;;;;;338.77;129.57;;;7.00;99.90;;;;;;5127146;27;20268;-51
2022/11/06 03:20:35;;;;;;;1179.77;211.03;;;7.10;99.90;;;;;;5118087;27;20230;-51
2022/11/06 03:23:13;;;;;;;594.03;133.00;;;7.10;99.90;;;;;;5116594;27;20767;-51
2022/11/06 03:25:47;;;;;;;275.43;74.17;;;7.10;99.90;;;;;;5118331;27;20213;-51
2022/11/06 03:28:25;;;;;;;741.57;206.80;;;7.10;99.90;;;;;;5126598;27;20242;-51
2022/11/06 03:30:58;;;;;;;1527.30;325.80;;;7.10;99.90;;;;;;5119403;27;20339;-51
2022/11/06 03:33:32;;;;;;;1368.73;270.60;;;7.20;99.90;;;;;;5126099;27;20289;-51
2022/11/06 03:36:06;;;;;;;1580.43;288.53;;;7.10;99.90;;;;;;5117404;27;20315;-51
2022/11/06 03:38:39;;;;;;;653.40;155.93;;;7.10;99.90;;;;;;5129794;27;20759;-51
2022/11/06 03:41:14;;;;;;;1999.90;394.73;;;7.10;99.90;;;;;;5115703;27;20640;-51
2022/11/06 03:43:47;;;;;;;149.60;66.37;;;7.10;99.90;;;;;;5117441;27;20290;-51
2022/11/06 03:46:19;;;;;;;1052.97;246.73;;;7.10;99.90;;;;;;5114717;27;20252;-51
2022/11/06 03:48:52;;;;;;;164.50;55.80;;;7.10;99.90;;;;;;5129220;27;20216;-51
2022/11/06 03:51:24;;;;;;;437.97;114.80;;;7.00;99.90;;;;;;5123230;27;20277;-51
2022/11/06 03:53:56;;;;;;;1931.77;331.93;;;7.00;99.90;;;;;;5129626;27;20278;-51
2022/11/06 03:56:30;;;;;;;1693.70;350.23;;;7.00;99.90;;;;;;5116838;27;20245;-51
2022/11/06 03:59:04;;;;;;;1425.60;286.27;;;7.10;99.90;;;;;;5128625;27;20297;-50
2022/11/06 04:01:36;;;;;;;1041.10;222.83;;;7.00;99.90;;;;;;5116164;27;20238;-51
2022/11/06 04:04:08;;;;;;;479.70;111.47;;;7.10;99.90;;;;;;5118225;27;20612;-51
2022/11/06 04:06:42;;;;;;;792.07;186.60;;;6.90;99.90;;;;;;5121177;27;20234;-51
2022/11/06 04:14:52;;;;;;;256.13;91.27;;;7.00;99.90;;;;;;5122275;27;20259;-51
2022/11/06 04:17:23;;;;;;;439.97;178.67;;;7.00;99.90;;;;;;5120787;27;20297;-51
2022/11/06 04:19:57;;;;;;;456.67;112.87;;;7.00;99.90;;;;;;5115999;27;20646;-51
2022/11/06 04:22:45;;;;;;;351.60;110.13;;;7.10;99.90;;;;;;5126038;27;20729;-51
2022/11/06 04:28:23;;;;;;;127.20;65.90;;;7.10;99.90;;;;;;5123911;27;20229;-51
2022/11/06 04:31:00;;;;;;;175.53;76.43;;;7.10;99.90;;;;;;5122488;27;20816;-52
2022/11/06 04:33:34;;;;;;;972.17;222.37;;;7.10;99.90;;;;;;5123890;27;20306;-51
2022/11/06 04:36:11;;;;;;;326.73;98.67;;;7.10;99.90;;;;;;5118224;27;20303;-51
2022/11/06 04:38:44;;;;;;;911.53;245.00;;;7.10;99.90;;;;;;5122596;27;20297;-51
2022/11/06 04:41:20;;;;;;;249.03;71.77;;;7.10;99.90;;;;;;5120096;27;20221;-51
2022/11/06 04:43:53;;;;;;;703.00;157.07;;;7.10;99.90;;;;;;5114283;27;20207;-51
2022/11/06 04:46:27;;;;;;;700.03;153.80;;;7.10;99.90;;;;;;5126773;27;20671;-51
2022/11/06 04:48:56;;;;;;;1151.20;187.23;;;7.10;99.90;;;;;;5119639;27;20205;-51
2022/11/06 04:51:27;;;;;;;980.17;219.80;;;7.10;99.90;;;;;;5122409;27;20247;-51
2022/11/06 04:53:57;;;;;;;320.00;97.53;;;7.10;99.90;;;;;;5116779;27;20237;-51
2022/11/06 04:56:29;;;;;;;707.27;146.87;;;7.10;99.90;;;;;;5121939;27;20301;-50
2022/11/06 04:59:02;;;;;;;319.27;99.03;;;7.10;99.90;;;;;;5114603;27;20206;-51
2022/11/06 05:01:32;;;;;;;269.13;89.07;;;7.10;99.90;;;;;;5122398;27;20256;-51
2022/11/06 05:04:00;;;;;;;410.23;121.67;;;7.10;99.90;;;;;;5118671;27;20209;-51
2022/11/06 05:06:28;;;;;;;313.67;123.47;;;7.10;99.90;;;;;;5117904;27;20238;-51
2022/11/06 05:08:58;;;;;;;914.27;241.87;;;7.10;99.90;;;;;;5116944;27;20267;-51
2022/11/06 05:11:26;;;;;;;531.90;127.63;;;7.10;99.90;;;;;;5115366;27;20280;-51
2022/11/06 05:13:54;;;;;;;538.70;107.27;;;7.10;99.90;;;;;;5122342;27;20234;-60
2022/11/06 05:16:22;;;;;;;979.40;214.53;;;7.10;99.90;;;;;;5116243;27;20346;-51
2022/11/06 05:18:51;;;;;;;277.37;103.13;;;7.10;99.90;;;;;;5130667;27;20345;-51
2022/11/06 05:24:06;;;;;;;112.43;45.67;;;7.10;99.90;;;;;;5123242;27;20666;-51
2022/11/06 05:26:34;;;;;;;470.77;135.67;;;7.10;99.90;;;;;;5122484;27;20283;-51
2022/11/06 05:29:02;;;;;;;800.23;184.93;;;7.10;99.90;;;;;;5128586;27;20744;-51
2022/11/06 05:31:30;;;;;;;404.50;136.63;;;7.00;99.90;;;;;;5121964;27;20737;-51
2022/11/06 05:34:00;;;;;;;492.47;138.50;;;7.10;99.90;;;;;;5117251;27;20204;-51
2022/11/06 05:36:28;;;;;;;149.40;51.27;;;7.00;99.90;;;;;;5126198;27;20240;-51
2022/11/06 05:38:56;;;;;;;356.43;136.57;;;7.10;99.90;;;;;;5122682;27;20314;-51
2022/11/06 05:41:24;;;;;;;320.53;81.43;;;7.10;99.90;;;;;;5124803;27;20747;-51
2022/11/06 05:43:52;;;;;;;724.00;167.80;;;7.20;99.90;;;;;;5127892;27;20272;-52
2022/11/06 05:46:20;;;;;;;274.17;67.50;;;7.10;99.90;;;;;;5126861;27;20602;-52
2022/11/06 05:49:10;;;;;;;295.23;92.70;;;7.10;99.90;;;;;;5128879;27;20211;-52
2022/11/06 05:51:38;;;;;;;802.70;202.23;;;7.10;99.90;;;;;;5124818;27;20314;-51
2022/11/06 05:54:06;;;;;;;342.73;101.37;;;7.10;99.90;;;;;;5131498;27;20199;-52
2022/11/06 05:56:34;;;;;;;1115.63;250.10;;;7.10;99.90;;;;;;5124440;27;20213;-52
2022/11/06 05:59:03;;;;;;;1625.90;310.13;;;7.10;99.90;;;;;;5120982;27;20928;-51
2022/11/06 06:01:31;;;;;;;747.20;180.43;;;7.10;99.90;;;;;;5116380;27;20716;-51
2022/11/06 06:03:59;;;;;;;692.40;176.40;;;7.10;99.90;;;;;;5120808;27;20228;-50
2022/11/06 06:06:29;;;;;;;1366.70;246.20;;;7.10;99.90;;;;;;5119782;27;20672;-50
2022/11/06 06:08:57;;;;;;;291.87;79.03;;;7.00;99.90;;;;;;5124539;27;20294;-52
2022/11/06 06:11:25;;;;;;;1777.27;299.43;;;7.10;99.90;;;;;;5118432;27;20801;-51
2022/11/06 06:13:53;;;;;;;465.70;113.77;;;7.00;99.90;;;;;;5120974;27;20781;-51
2022/11/06 06:16:21;;;;;;;382.17;119.87;;;7.00;99.90;;;;;;5118789;27;20215;-52
2022/11/06 06:18:50;;;;;;;1081.87;258.57;;;7.00;99.90;;;;;;5126730;27;20329;-52
2022/11/06 06:21:18;;;;;;;621.80;157.87;;;7.00;99.90;;;;;;5126204;27;20261;-51
2022/11/06 06:23:48;;;;;;;1142.10;237.50;;;7.00;99.90;;;;;;5124484;27;20312;-50
2022/11/06 06:26:16;;;;;;;1226.83;246.10;;;7.00;99.90;;;;;;5123083;27;20249;-51
2022/11/06 06:28:44;;;;;;;622.83;165.00;;;7.00;99.90;;;;;;5122570;27;20205;-51
2022/11/06 06:31:12;;;;;;;716.43;150.63;;;7.00;99.90;;;;;;5119231;27;20251;-51
2022/11/06 06:33:40;;;;;;;368.73;93.57;;;7.00;99.90;;;;;;5126060;27;20238;-51
2022/11/06 06:36:09;;;;;;;539.57;127.03;;;7.00;99.90;;;;;;5117868;27;20689;-50
2022/11/06 06:38:37;;;;;;;474.00;128.13;;;7.00;99.90;;;;;;5118237;27;20313;-51
2022/11/06 06:41:08;;;;;;;1999.90;336.97;;;7.00;99.90;;;;;;5124426;27;20655;-51
2022/11/06 06:43:37;;;;;;;847.03;199.10;;;7.00;99.90;;;;;;5121482;27;20291;-52
2022/11/06 06:46:06;;;;;;;799.03;197.23;;;7.00;99.90;;;;;;5122981;27;20693;-51
2022/11/06 06:48:35;;;;;;;1084.37;275.10;;;7.00;99.90;;;;;;5123408;27;20230;-51
2022/11/06 06:51:06;;;;;;;1824.63;358.67;;;7.10;99.90;;;;;;5125913;27;20285;-51
2022/11/06 06:53:35;;;;;;;638.37;150.03;;;7.00;99.90;;;;;;5135332;27;20243;-52
2022/11/06 06:56:04;;;;;;;647.23;197.40;;;7.10;99.90;;;;;;5143564;27;20749;-51
2022/11/06 06:58:34;;;;;;;548.03;130.87;;;7.10;99.90;;;;;;5139009;27;20265;-51
2022/11/06 07:01:04;;;;;;;350.30;104.50;;;7.20;99.90;;;;;;5140080;27;20280;-52
2022/11/06 07:03:33;;;;;;;359.20;92.93;;;7.10;99.90;;;;;;5140645;27;20674;-51
2022/11/06 07:06:01;;;;;;;377.83;92.97;;;7.20;99.90;;;;;;5139038;27;21472;-52
2022/11/06 07:08:29;;;;;;;693.90;162.03;;;7.20;99.90;;;;;;5138564;27;20206;-52
2022/11/06 07:11:01;;;;;;;675.10;158.17;;;7.20;99.90;;;;;;5135230;27;20653;-52
2022/11/06 07:13:29;;;;;;;643.70;119.57;;;7.20;99.90;;;;;;5139398;27;20202;-51
2022/11/06 07:16:05;;;;;;;879.53;237.83;;;7.20;99.90;;;;;;5126409;27;20763;-51
2022/11/06 07:18:33;;;;;;;304.13;105.60;;;7.20;99.90;;;;;;5135936;27;20242;-52
2022/11/06 07:21:04;;;;;;;561.07;164.70;;;7.20;99.90;;;;;;5135634;27;20226;-50
2022/11/06 07:23:33;;;;;;;863.13;165.23;;;7.30;99.90;;;;;;5128800;27;20203;-51
2022/11/06 07:26:02;;;;;;;561.77;149.60;;;7.30;99.90;;;;;;5129480;27;20214;-52
2022/11/06 07:28:30;;;;;;;627.50;158.77;;;7.30;99.90;;;;;;5127563;27;20207;-52
2022/11/06 07:30:59;;;;;;;1066.10;206.50;;;7.30;99.90;;;;;;5129731;27;20222;-51
2022/11/06 07:33:29;;;;;;;1180.87;227.03;;;7.40;99.90;;;;;;5131898;27;20302;-51
2022/11/06 07:36:02;;;;;;;1999.90;382.37;;;7.30;99.90;;;;;;5127498;27;20628;-52
2022/11/06 07:38:32;;;;;;;1399.37;337.83;;;7.30;99.90;;;;;;5130102;27;20246;-51
2022/11/06 07:41:03;;;;;;;1678.07;321.63;;;7.30;99.90;;;;;;5119166;27;20393;-51
2022/11/06 07:43:31;;;;;;;242.07;84.57;;;7.30;99.90;;;;;;5128500;27;20296;-51
2022/11/06 07:46:00;;;;;;;1225.27;245.87;;;7.30;99.90;;;;;;5130146;27;20403;-51
2022/11/06 07:48:31;;;;;;;224.77;99.27;;;7.40;99.90;;;;;;5127959;27;20203;-52
2022/11/06 07:51:01;;;;;;;1865.17;403.07;;;7.40;99.90;;;;;;5124332;27;20273;-52
2022/11/06 07:53:30;;;;;;;238.03;75.03;;;7.50;99.90;;;;;;5126386;27;20198;-51
2022/11/06 07:55:58;;;;;;;695.43;180.23;;;7.40;99.90;;;;;;5117106;27;20257;-51
2022/11/06 07:58:26;;;;;;;395.53;116.30;;;7.40;99.90;;;;;;5115954;27;20309;-51
2022/11/06 08:00:56;;;;;;;1999.90;460.33;;;7.50;99.90;;;;;;5122543;27;20223;-51
2022/11/06 08:03:25;;;;;;;1718.60;386.53;;;7.40;99.90;;;;;;5128664;27;20212;-50
2022/11/06 08:05:54;;;;;;;639.10;144.53;;;7.40;99.90;;;;;;5124923;27;20217;-51
2022/11/06 08:08:23;;;;;;;1301.47;340.00;;;7.30;99.90;;;;;;5129187;27;20291;-51
2022/11/06 08:10:52;;;;;;;1453.10;349.90;;;7.30;99.90;;;;;;5128395;27;20230;-51
2022/11/06 08:13:20;;;;;;;1507.10;313.93;;;7.40;99.90;;;;;;5128947;27;20202;-50
2022/11/06 08:15:49;;;;;;;489.03;125.60;;;7.30;99.90;;;;;;5122430;27;20283;-51
2022/11/06 08:18:17;;;;;;;622.83;125.57;;;7.40;99.90;;;;;;5125758;27;20307;-52
2022/11/06 08:20:45;;;;;;;1335.43;256.37;;;7.40;99.90;;;;;;5118662;27;21042;-52
2022/11/06 08:23:15;;;;;;;1407.23;308.50;;;7.30;99.90;;;;;;5132710;27;20233;-52
2022/11/06 08:25:43;;;;;;;844.30;196.00;;;7.30;99.90;;;;;;5138075;27;20826;-51
2022/11/06 08:28:11;;;;;;;411.67;110.57;;;7.30;99.90;;;;;;5134107;27;20233;-51
2022/11/06 08:30:39;;;;;;;1694.57;324.60;;;7.40;99.90;;;;;;5129894;27;20258;-50
2022/11/06 08:33:08;;;;;;;1084.87;253.97;;;7.40;99.90;;;;;;5123327;27;20207;-52
2022/11/06 08:35:37;;;;;;;1151.63;223.07;;;7.40;99.90;;;;;;5118691;27;20330;-51
2022/11/06 08:38:05;;;;;;;1097.23;268.53;;;7.40;99.90;;;;;;5129898;27;20293;-51
2022/11/06 08:40:37;;;;;;;587.63;180.37;;;7.40;99.90;;;;;;5123255;27;20735;-52
2022/11/06 08:43:09;;;;;;;1902.10;379.30;;;7.40;99.90;;;;;;5124135;27;20207;-52
2022/11/06 08:45:38;;;;;;;1999.90;415.77;;;7.40;99.90;;;;;;5123852;27;20252;-52
2022/11/06 08:48:07;;;;;;;1094.83;196.77;;;7.40;99.90;;;;;;5126557;27;20217;-52
2022/11/06 08:50:37;;;;;;;1999.90;521.13;;;7.40;99.90;;;;;;5119396;27;20219;-51
2022/11/06 08:53:06;;;;;;;1147.13;326.87;;;7.50;99.90;;;;;;5123836;27;20651;-51
2022/11/06 08:55:38;;;;;;;1567.67;323.13;;;7.50;99.90;;;;;;5122800;27;20234;-52
2022/11/06 08:58:07;;;;;;;1999.90;480.37;;;7.40;99.90;;;;;;5120952;27;20211;-51
2022/11/06 09:00:36;;;;;;;1999.90;495.37;;;7.40;99.90;;;;;;5124138;27;20320;-51
2022/11/06 09:03:06;;;;;;;218.00;66.63;;;7.50;99.90;;;;;;5123862;27;20354;-51
2022/11/06 09:05:34;;;;;;;742.80;187.17;;;7.50;99.90;;;;;;5122231;27;20249;-51
2022/11/06 09:08:02;;;;;;;1796.63;352.53;;;7.70;99.90;;;;;;5126261;27;20238;-50
2022/11/06 09:10:30;;;;;;;1990.00;456.63;;;7.60;99.90;;;;;;5116561;27;20229;-51
2022/11/06 09:13:00;;;;;;;861.93;235.33;;;7.70;99.90;;;;;;5118127;27;20209;-51
2022/11/06 09:15:28;;;;;;;1695.57;345.90;;;7.70;99.90;;;;;;5120727;27;20237;-51
2022/11/06 09:17:57;;;;;;;1999.90;466.57;;;7.80;99.90;;;;;;5123979;27;20224;-50
2022/11/06 09:20:26;;;;;;;1799.20;358.67;;;7.80;99.90;;;;;;5120925;27;20349;-51
2022/11/06 09:22:54;;;;;;;649.53;131.67;;;7.90;99.90;;;;;;5126203;27;20237;-51
2022/11/06 09:25:22;;;;;;;1196.47;231.20;;;7.90;99.90;;;;;;5123585;27;20241;-51
2022/11/06 09:27:52;;;;;;;1999.90;708.00;;;8.00;99.90;;;;;;5129534;27;20249;-51
2022/11/06 09:30:29;;;;;;;521.13;131.73;;;8.10;99.90;;;;;;5124819;27;20261;-52
2022/11/06 09:32:59;;;;;;;1640.60;362.23;;;8.00;99.90;;;;;;5125937;27;20856;-51
2022/11/06 09:35:30;;;;;;;1259.83;278.60;;;8.00;99.90;;;;;;5121740;27;20675;-52
2022/11/06 09:38:02;;;;;;;1999.90;488.10;;;8.10;99.90;;;;;;5121021;27;20286;-51
2022/11/06 09:40:33;;;;;;;1299.83;341.83;;;8.10;99.90;;;;;;5126841;27;20711;-52
2022/11/06 09:43:16;;;;;;;1997.57;394.77;;;8.20;99.90;;;;;;5125806;27;20276;-52
2022/11/06 09:46:06;;;;;;;616.83;171.73;;;8.30;99.90;;;;;;5126002;27;20210;-51
2022/11/06 09:48:38;;;;;;;409.87;98.73;;;8.40;99.90;;;;;;5118007;27;20310;-51
2022/11/06 09:51:20;;;;;;;355.97;90.83;;;8.50;99.90;;;;;;5127362;28;20254;-52
2022/11/06 09:53:55;;;;;;;816.97;216.60;;;8.50;99.90;;;;;;5116228;27;20957;-52
2022/11/06 09:56:28;;;;;;;1703.73;409.87;;;8.60;99.90;;;;;;5119868;27;20294;-50
2022/11/06 09:58:59;;;;;;;1999.90;720.43;;;8.60;99.90;;;;;;5123320;27;20233;-52
2022/11/06 10:01:38;;;;;;;1999.90;674.03;;;8.70;99.90;;;;;;5116226;27;20737;-51
2022/11/06 10:04:10;;;;;;;1019.83;232.70;;;8.60;99.90;;;;;;5126252;27;20199;-50
2022/11/06 10:06:38;;;;;;;1999.90;499.50;;;8.60;99.90;;;;;;5130710;27;20235;-51
2022/11/06 10:09:07;;;;;;;1376.77;370.00;;;8.80;99.90;;;;;;5126323;27;20209;-52
2022/11/06 10:11:55;;;;;;;1999.90;510.30;;;8.90;99.90;;;;;;5122759;27;20825;-52
2022/11/06 10:14:36;;;;;;;1257.40;342.17;;;8.90;99.90;;;;;;5127075;27;20260;-52
2022/11/06 10:17:17;;;;;;;1231.03;307.47;;;8.90;99.90;;;;;;5124687;27;20203;-51
2022/11/06 10:19:51;;;;;;;693.37;168.97;;;9.00;99.90;;;;;;5124617;27;20865;-52
2022/11/06 10:22:24;;;;;;;1324.40;282.67;;;8.90;99.90;;;;;;5130213;27;20659;-52
2022/11/06 10:25:01;;;;;;;1999.90;500.47;;;9.10;99.90;;;;;;5124077;27;20217;-51
2022/11/06 10:27:39;;;;;;;898.40;242.70;;;9.10;99.90;;;;;;5122292;27;20239;-51
2022/11/06 10:30:11;;;;;;;1583.33;369.50;;;9.10;99.90;;;;;;5118386;27;20307;-51
2022/11/06 10:33:07;;;;;;;1729.43;413.80;;;9.10;99.90;;;;;;5122733;27;20233;-51
2022/11/06 10:35:39;;;;;;;1979.60;470.07;;;9.20;99.90;;;;;;5127683;27;20217;-51
2022/11/06 10:38:13;;;;;;;1999.90;515.60;;;9.40;99.90;;;;;;5123041;27;20238;-52
2022/11/06 10:40:44;;;;;;;1999.90;525.57;;;9.40;99.90;;;;;;5127830;27;20226;-50
2022/11/06 10:43:24;;;;;;;1999.90;485.30;;;9.30;99.90;;;;;;5124150;27;20235;-51
2022/11/06 10:46:01;;;;;;;1999.90;642.37;;;9.40;99.90;;;;;;5125215;27;20675;-51
2022/11/06 10:48:33;;;;;;;1747.40;425.20;;;9.40;99.90;;;;;;5131522;27;20239;-52
2022/11/06 10:51:31;;;;;;;1421.13;368.73;;;9.40;99.90;;;;;;5127009;27;20625;-52
2022/11/06 10:54:11;;;;;;;1999.90;489.40;;;9.30;99.90;;;;;;5127201;27;20626;-51
2022/11/06 10:56:52;;;;;;;1999.90;405.43;;;9.30;99.90;;;;;;5128552;27;20207;-52
2022/11/06 10:59:20;;;;;;;1999.90;497.10;;;9.40;99.90;;;;;;5127874;27;20867;-52
2022/11/06 11:01:49;;;;;;;1312.17;329.57;;;9.60;99.90;;;;;;5127556;27;20628;-52
2022/11/06 11:04:18;;;;;;;1999.90;638.17;;;9.60;99.90;;;;;;5120846;27;20756;-51
2022/11/06 11:06:46;;;;;;;1992.67;482.60;;;9.60;99.90;;;;;;5127276;27;20234;-52
2022/11/06 11:09:28;;;;;;;1027.10;302.63;;;9.60;99.90;;;;;;5127456;27;20298;-51
2022/11/06 11:11:56;;;;;;;1999.90;623.37;;;9.60;99.90;;;;;;5134101;27;20218;-52
2022/11/06 11:14:26;;;;;;;1395.03;384.93;;;9.60;99.90;;;;;;5130323;27;20298;-52
2022/11/06 11:16:57;;;;;;;1917.17;462.77;;;9.70;99.90;;;;;;5130409;27;20282;-52
2022/11/06 11:19:34;;;;;;;388.23;125.20;;;9.70;99.90;;;;;;5128544;27;20868;-51
2022/11/06 11:22:05;;;;;;;1626.33;423.47;;;9.70;99.90;;;;;;5126667;27;20218;-52
2022/11/06 11:24:33;;;;;;;886.07;295.63;;;9.70;99.90;;;;;;5129831;27;20298;-52
2022/11/06 11:27:04;;;;;;;904.17;242.20;;;9.80;99.90;;;;;;5124979;27;20207;-52
2022/11/06 11:29:41;;;;;;;1711.80;451.77;;;9.80;99.90;;;;;;5125509;27;20228;-51
2022/11/06 11:32:15;;;;;;;1035.37;290.77;;;9.80;99.90;;;;;;5120299;27;20224;-52
2022/11/06 11:34:48;;;;;;;1232.80;333.10;;;9.80;99.90;;;;;;5120287;27;20293;-52
2022/11/06 11:37:26;;;;;;;1999.90;609.17;;;10.00;99.90;;;;;;5121470;27;20203;-51
2022/11/06 11:39:54;;;;;;;1999.90;571.17;;;10.00;99.90;;;;;;5118604;27;20227;-53
2022/11/06 11:42:28;;;;;;;1295.87;455.37;;;9.90;99.90;;;;;;5119045;27;20202;-52
2022/11/06 11:45:16;;;;;;;1999.90;588.47;;;9.80;99.90;;;;;;5125361;27;20293;-52
2022/11/06 11:47:46;;;;;;;1999.90;599.17;;;9.80;99.90;;;;;;5122303;27;20298;-52
2022/11/06 11:50:29;;;;;;;1615.13;374.73;;;9.80;99.90;;;;;;5125039;27;20222;-52
2022/11/06 11:53:05;;;;;;;1999.90;443.57;;;9.90;99.90;;;;;;5118792;27;20237;-52
2022/11/06 11:55:43;;;;;;;1999.90;846.00;;;9.90;99.90;;;;;;5126744;27;20200;-51
2022/11/06 11:58:29;;;;;;;992.53;248.80;;;9.80;99.90;;;;;;5116617;27;20260;-50
2022/11/06 12:00:59;;;;;;;1999.90;700.07;;;9.90;99.90;;;;;;5123220;27;20258;-51
2022/11/06 12:03:32;;;;;;;1999.90;639.63;;;9.80;99.90;;;;;;5125999;27;20204;-51
2022/11/06 12:06:08;;;;;;;1999.90;653.20;;;9.90;99.90;;;;;;5128356;27;20241;-52
2022/11/06 12:08:39;;;;;;;1541.03;437.00;;;9.80;99.90;;;;;;5129641;27;20202;-52
2022/11/06 12:11:07;;;;;;;1752.97;487.53;;;9.80;99.90;;;;;;5124112;27;20333;-51
2022/11/06 12:13:36;;;;;;;1605.07;420.03;;;9.80;99.90;;;;;;5128976;27;20856;-53
2022/11/06 12:16:08;;;;;;;1806.97;499.90;;;10.00;99.90;;;;;;5128786;27;20204;-52
2022/11/06 12:18:40;;;;;;;1999.90;442.27;;;10.10;99.90;;;;;;5127846;27;20234;-51
2022/11/06 12:21:15;;;;;;;1999.90;570.53;;;10.20;99.90;;;;;;5126716;27;20730;-52
2022/11/06 12:23:48;;;;;;;1052.63;281.37;;;10.20;99.90;;;;;;5119366;27;20199;-51
2022/11/06 12:26:25;;;;;;;992.27;316.77;;;10.30;99.90;;;;;;5125436;27;21082;-52
2022/11/06 12:28:59;;;;;;;1483.50;421.83;;;10.30;99.90;;;;;;5120872;27;20791;-51
2022/11/06 12:31:40;;;;;;;1999.90;636.80;;;10.30;99.90;;;;;;5122314;27;20222;-52
2022/11/06 12:34:14;;;;;;;1982.97;529.97;;;10.30;99.90;;;;;;5129304;27;20316;-51
2022/11/06 12:36:53;;;;;;;1999.90;905.17;;;10.30;99.90;;;;;;5135615;27;20255;-52
2022/11/06 12:39:26;;;;;;;1999.90;642.73;;;10.20;99.90;;;;;;5131816;27;20218;-51
2022/11/06 12:41:56;;;;;;;1999.90;766.70;;;10.20;99.90;;;;;;5127367;27;20684;-50
2022/11/06 12:44:24;;;;;;;1986.30;580.60;;;10.20;99.90;;;;;;5131205;27;20195;-51
2022/11/06 12:47:00;;;;;;;1999.90;782.07;;;10.20;99.90;;;;;;5122262;27;20204;-51
2022/11/06 12:50:00;;;;;;;1239.47;482.17;;;10.30;99.90;;;;;;5128212;27;20234;-50